sensor_id;sensor_type;location;lat;lon;timestamp;pressure;altitude;pressure_sealevel;temperature;humidity
59971;BME280;45825;45.434;9.116;2023-02-14T00:01:08;102343.66;;;7.55;61.21
59971;BME280;45825;45.434;9.116;2023-02-14T00:03:34;102334.94;;;7.53;61.23
59971;BME280;45825;45.434;9.116;2023-02-14T00:06:07;102339.34;;;7.49;61.58
59971;BME280;45825;45.434;9.116;2023-02-14T00:08:33;102329.72;;;7.48;61.40
59971;BME280;45825;45.434;9.116;2023-02-14T00:10:58;102332.31;;;7.51;61.31
59971;BME280;45825;45.434;9.116;2023-02-14T00:13:24;102335.06;;;7.39;61.55
59971;BME280;45825;45.434;9.116;2023-02-14T00:15:49;102329.81;;;7.39;61.77
59971;BME280;45825;45.434;9.116;2023-02-14T00:18:14;102327.16;;;7.42;61.35
59971;BME280;45825;45.434;9.116;2023-02-14T00:20:40;102325.41;;;7.44;61.25
59971;BME280;45825;45.434;9.116;2023-02-14T00:23:05;102322.00;;;7.34;61.77
59971;BME280;45825;45.434;9.116;2023-02-14T00:25:32;102319.38;;;7.36;61.35
59971;BME280;45825;45.434;9.116;2023-02-14T00:27:58;102324.66;;;7.31;61.88
59971;BME280;45825;45.434;9.116;2023-02-14T00:30:23;102326.34;;;7.35;61.71
59971;BME280;45825;45.434;9.116;2023-02-14T00:32:48;102322.81;;;7.41;61.41
59971;BME280;45825;45.434;9.116;2023-02-14T00:35:13;102322.03;;;7.30;61.30
59971;BME280;45825;45.434;9.116;2023-02-14T00:37:39;102325.47;;;7.36;61.19
59971;BME280;45825;45.434;9.116;2023-02-14T00:40:05;102316.72;;;7.40;61.36
59971;BME280;45825;45.434;9.116;2023-02-14T00:42:30;102317.53;;;7.46;61.12
59971;BME280;45825;45.434;9.116;2023-02-14T00:44:56;102316.81;;;7.33;61.28
59971;BME280;45825;45.434;9.116;2023-02-14T00:47:21;102315.94;;;7.29;61.27
59971;BME280;45825;45.434;9.116;2023-02-14T00:49:46;102315.88;;;7.37;61.42
59971;BME280;45825;45.434;9.116;2023-02-14T00:52:11;102324.72;;;7.23;61.79
59971;BME280;45825;45.434;9.116;2023-02-14T00:54:37;102315.94;;;7.29;61.59
59971;BME280;45825;45.434;9.116;2023-02-14T00:57:02;102322.06;;;7.28;61.59
59971;BME280;45825;45.434;9.116;2023-02-14T00:59:27;102321.31;;;7.15;61.69
59971;BME280;45825;45.434;9.116;2023-02-14T01:01:53;102325.56;;;7.25;62.00
59971;BME280;45825;45.434;9.116;2023-02-14T01:04:18;102315.06;;;7.32;61.41
59971;BME280;45825;45.434;9.116;2023-02-14T01:06:43;102310.78;;;7.18;61.84
59971;BME280;45825;45.434;9.116;2023-02-14T01:09:09;102318.56;;;7.27;61.48
59971;BME280;45825;45.434;9.116;2023-02-14T01:11:34;102317.72;;;7.27;61.55
59971;BME280;45825;45.434;9.116;2023-02-14T01:14:00;102317.75;;;7.22;61.49
59971;BME280;45825;45.434;9.116;2023-02-14T01:16:27;102315.25;;;7.10;62.01
59971;BME280;45825;45.434;9.116;2023-02-14T01:18:52;102308.22;;;7.17;61.67
59971;BME280;45825;45.434;9.116;2023-02-14T01:21:20;102306.44;;;7.17;61.70
59971;BME280;45825;45.434;9.116;2023-02-14T01:23:48;102305.56;;;7.18;61.97
59971;BME280;45825;45.434;9.116;2023-02-14T01:26:14;102305.59;;;7.17;61.45
59971;BME280;45825;45.434;9.116;2023-02-14T01:28:40;102302.16;;;7.10;61.91
59971;BME280;45825;45.434;9.116;2023-02-14T01:31:09;102296.03;;;7.11;61.83
59971;BME280;45825;45.434;9.116;2023-02-14T01:33:35;102298.66;;;7.08;61.87
59971;BME280;45825;45.434;9.116;2023-02-14T01:36:00;102290.00;;;7.03;62.11
59971;BME280;45825;45.434;9.116;2023-02-14T01:38:25;102283.88;;;7.04;62.23
59971;BME280;45825;45.434;9.116;2023-02-14T01:40:51;102291.88;;;6.83;62.86
59971;BME280;45825;45.434;9.116;2023-02-14T01:43:16;102287.53;;;6.81;63.10
59971;BME280;45825;45.434;9.116;2023-02-14T01:45:41;102289.28;;;6.83;63.25
59971;BME280;45825;45.434;9.116;2023-02-14T01:48:07;102285.78;;;6.81;63.24
59971;BME280;45825;45.434;9.116;2023-02-14T01:50:36;102284.13;;;6.66;63.77
59971;BME280;45825;45.434;9.116;2023-02-14T01:53:10;102281.50;;;6.66;63.33
59971;BME280;45825;45.434;9.116;2023-02-14T01:55:40;102284.16;;;6.63;63.41
59971;BME280;45825;45.434;9.116;2023-02-14T01:58:26;102274.66;;;6.51;63.44
59971;BME280;45825;45.434;9.116;2023-02-14T02:00:53;102283.38;;;6.53;64.08
59971;BME280;45825;45.434;9.116;2023-02-14T02:03:38;102277.25;;;6.53;63.71
59971;BME280;45825;45.434;9.116;2023-02-14T02:06:10;102281.59;;;6.54;63.59
59971;BME280;45825;45.434;9.116;2023-02-14T02:08:49;102272.84;;;6.61;63.57
59971;BME280;45825;45.434;9.116;2023-02-14T02:11:16;102280.75;;;6.53;63.67
59971;BME280;45825;45.434;9.116;2023-02-14T02:13:41;102277.22;;;6.59;63.90
59971;BME280;45825;45.434;9.116;2023-02-14T02:30:31;102255.59;;;6.27;64.30
59971;BME280;45825;45.434;9.116;2023-02-14T02:33:19;102260.84;;;6.29;64.34
59971;BME280;45825;45.434;9.116;2023-02-14T02:35:59;102263.38;;;6.43;64.04
59971;BME280;45825;45.434;9.116;2023-02-14T02:38:35;102259.97;;;6.27;64.05
59971;BME280;45825;45.434;9.116;2023-02-14T02:46:24;102250.56;;;5.81;65.36
59971;BME280;45825;45.434;9.116;2023-02-14T02:49:35;102249.75;;;5.71;66.23
59971;BME280;45825;45.434;9.116;2023-02-14T02:52:36;102255.84;;;5.68;66.33
59971;BME280;45825;45.434;9.116;2023-02-14T02:58:18;102243.69;;;5.49;67.11
59971;BME280;45825;45.434;9.116;2023-02-14T03:00:46;102238.50;;;5.35;67.07
59971;BME280;45825;45.434;9.116;2023-02-14T03:03:12;102238.50;;;5.42;66.97
59971;BME280;45825;45.434;9.116;2023-02-14T03:05:57;102236.75;;;5.44;66.61
59971;BME280;45825;45.434;9.116;2023-02-14T03:08:23;102235.91;;;5.38;67.41
59971;BME280;45825;45.434;9.116;2023-02-14T03:10:48;102235.03;;;5.32;66.89
59971;BME280;45825;45.434;9.116;2023-02-14T03:13:28;102234.19;;;5.23;67.12
59971;BME280;45825;45.434;9.116;2023-02-14T03:24:27;102224.63;;;5.22;67.38
59971;BME280;45825;45.434;9.116;2023-02-14T03:27:05;102235.94;;;5.21;66.80
59971;BME280;45825;45.434;9.116;2023-02-14T03:29:55;102225.47;;;5.27;66.66
59971;BME280;45825;45.434;9.116;2023-02-14T03:32:30;102223.75;;;5.18;66.63
59971;BME280;45825;45.434;9.116;2023-02-14T03:35:06;102218.53;;;5.23;66.81
59971;BME280;45825;45.434;9.116;2023-02-14T03:37:48;102222.00;;;5.20;66.45
59971;BME280;45825;45.434;9.116;2023-02-14T03:40:41;102223.78;;;4.95;67.46
59971;BME280;45825;45.434;9.116;2023-02-14T03:43:17;102220.28;;;4.97;67.74
59971;BME280;45825;45.434;9.116;2023-02-14T03:45:48;102213.34;;;4.93;67.73
59971;BME280;45825;45.434;9.116;2023-02-14T03:48:18;102208.09;;;5.04;67.12
59971;BME280;45825;45.434;9.116;2023-02-14T03:50:46;102211.59;;;5.06;67.03
59971;BME280;45825;45.434;9.116;2023-02-14T03:53:17;102205.50;;;5.01;66.92
59971;BME280;45825;45.434;9.116;2023-02-14T03:55:54;102207.25;;;4.97;66.95
59971;BME280;45825;45.434;9.116;2023-02-14T03:58:36;102203.75;;;5.11;66.97
59971;BME280;45825;45.434;9.116;2023-02-14T04:01:07;102202.00;;;5.17;66.60
59971;BME280;45825;45.434;9.116;2023-02-14T04:03:38;102196.78;;;5.13;66.40
59971;BME280;45825;45.434;9.116;2023-02-14T04:06:05;102202.88;;;5.13;66.56
59971;BME280;45825;45.434;9.116;2023-02-14T04:08:30;102198.50;;;5.20;66.49
59971;BME280;45825;45.434;9.116;2023-02-14T04:10:58;102196.75;;;5.22;66.39
59971;BME280;45825;45.434;9.116;2023-02-14T04:13:25;102194.16;;;5.27;66.14
59971;BME280;45825;45.434;9.116;2023-02-14T04:15:50;102195.00;;;5.35;66.35
59971;BME280;45825;45.434;9.116;2023-02-14T04:18:15;102195.84;;;5.47;65.64
59971;BME280;45825;45.434;9.116;2023-02-14T04:20:59;102189.72;;;5.51;65.52
59971;BME280;45825;45.434;9.116;2023-02-14T04:23:24;102194.97;;;5.41;65.64
59971;BME280;45825;45.434;9.116;2023-02-14T04:25:50;102187.13;;;5.54;65.29
59971;BME280;45825;45.434;9.116;2023-02-14T04:28:15;102191.47;;;5.50;65.17
59971;BME280;45825;45.434;9.116;2023-02-14T04:30:41;102182.78;;;5.40;65.02
59971;BME280;45825;45.434;9.116;2023-02-14T04:33:06;102186.31;;;5.38;65.60
59971;BME280;45825;45.434;9.116;2023-02-14T04:35:35;102177.63;;;5.25;66.32
59971;BME280;45825;45.434;9.116;2023-02-14T04:38:01;102174.16;;;5.21;66.02
59971;BME280;45825;45.434;9.116;2023-02-14T04:40:27;102177.63;;;5.31;65.84
59971;BME280;45825;45.434;9.116;2023-02-14T04:42:52;102176.72;;;5.29;66.01
59971;BME280;45825;45.434;9.116;2023-02-14T04:45:17;102173.25;;;5.31;66.06
59971;BME280;45825;45.434;9.116;2023-02-14T04:47:43;102168.00;;;5.36;65.32
59971;BME280;45825;45.434;9.116;2023-02-14T04:50:08;102167.97;;;5.50;65.30
59971;BME280;45825;45.434;9.116;2023-02-14T04:52:34;102170.59;;;5.49;65.14
59971;BME280;45825;45.434;9.116;2023-02-14T04:54:59;102168.00;;;5.41;65.51
59971;BME280;45825;45.434;9.116;2023-02-14T04:57:24;102166.28;;;5.30;65.45
59971;BME280;45825;45.434;9.116;2023-02-14T04:59:50;102172.41;;;5.23;65.97
59971;BME280;45825;45.434;9.116;2023-02-14T05:02:15;102167.22;;;5.17;66.82
59971;BME280;45825;45.434;9.116;2023-02-14T05:04:40;102165.47;;;5.11;66.77
59971;BME280;45825;45.434;9.116;2023-02-14T05:07:06;102166.34;;;5.10;67.02
59971;BME280;45825;45.434;9.116;2023-02-14T05:09:31;102178.53;;;5.02;66.67
59971;BME280;45825;45.434;9.116;2023-02-14T05:11:56;102177.63;;;5.09;66.91
59971;BME280;45825;45.434;9.116;2023-02-14T05:14:22;102170.72;;;5.07;66.88
59971;BME280;45825;45.434;9.116;2023-02-14T05:16:47;102170.72;;;5.02;66.52
59971;BME280;45825;45.434;9.116;2023-02-14T05:19:12;102171.56;;;5.04;66.34
59971;BME280;45825;45.434;9.116;2023-02-14T05:21:38;102178.53;;;5.02;66.91
59971;BME280;45825;45.434;9.116;2023-02-14T05:24:03;102192.44;;;5.18;66.60
59971;BME280;45825;45.434;9.116;2023-02-14T05:26:29;102184.59;;;5.16;66.66
59971;BME280;45825;45.434;9.116;2023-02-14T05:28:54;102182.00;;;5.09;66.88
59971;BME280;45825;45.434;9.116;2023-02-14T05:31:19;102190.69;;;5.09;66.88
59971;BME280;45825;45.434;9.116;2023-02-14T05:33:45;102186.34;;;5.10;66.89
59971;BME280;45825;45.434;9.116;2023-02-14T05:36:10;102189.84;;;5.04;67.22
59971;BME280;45825;45.434;9.116;2023-02-14T05:38:35;102207.25;;;4.33;70.44
59971;BME280;45825;45.434;9.116;2023-02-14T05:41:01;102203.75;;;4.66;69.87
59971;BME280;45825;45.434;9.116;2023-02-14T05:43:27;102206.41;;;4.69;69.63
59971;BME280;45825;45.434;9.116;2023-02-14T05:45:52;102208.13;;;4.71;69.38
59971;BME280;45825;45.434;9.116;2023-02-14T05:48:18;102202.03;;;4.79;68.57
59971;BME280;45825;45.434;9.116;2023-02-14T05:50:44;102200.28;;;4.71;68.81
59971;BME280;45825;45.434;9.116;2023-02-14T05:53:10;102198.56;;;4.66;69.13
59971;BME280;45825;45.434;9.116;2023-02-14T05:55:36;102198.56;;;4.70;68.44
59971;BME280;45825;45.434;9.116;2023-02-14T05:58:01;102198.53;;;4.38;68.92
59971;BME280;45825;45.434;9.116;2023-02-14T06:00:27;102205.41;;;4.06;70.07
59971;BME280;45825;45.434;9.116;2023-02-14T06:02:52;102208.88;;;3.99;71.24
59971;BME280;45825;45.434;9.116;2023-02-14T06:05:18;102214.13;;;4.22;70.77
59971;BME280;45825;45.434;9.116;2023-02-14T06:07:44;102211.53;;;4.22;70.09
59971;BME280;45825;45.434;9.116;2023-02-14T06:10:18;102206.34;;;4.30;70.21
59971;BME280;45825;45.434;9.116;2023-02-14T06:12:44;102209.81;;;4.27;69.96
59971;BME280;45825;45.434;9.116;2023-02-14T06:15:10;102210.69;;;4.29;70.25
59971;BME280;45825;45.434;9.116;2023-02-14T06:17:35;102227.22;;;4.36;69.44
59971;BME280;45825;45.434;9.116;2023-02-14T06:20:01;102222.88;;;4.44;69.45
59971;BME280;45825;45.434;9.116;2023-02-14T06:22:26;102223.78;;;4.45;69.19
59971;BME280;45825;45.434;9.116;2023-02-14T06:24:51;102221.16;;;4.40;69.29
59971;BME280;45825;45.434;9.116;2023-02-14T06:27:16;102227.22;;;4.42;69.28
59971;BME280;45825;45.434;9.116;2023-02-14T06:29:42;102232.44;;;4.33;69.39
59971;BME280;45825;45.434;9.116;2023-02-14T06:32:07;102235.03;;;4.30;69.71
59971;BME280;45825;45.434;9.116;2023-02-14T06:34:33;102233.25;;;4.16;69.78
59971;BME280;45825;45.434;9.116;2023-02-14T06:36:59;102237.53;;;4.02;70.27
59971;BME280;45825;45.434;9.116;2023-02-14T06:39:24;102237.44;;;3.78;70.96
59971;BME280;45825;45.434;9.116;2023-02-14T06:41:50;102237.41;;;3.71;71.67
59971;BME280;45825;45.434;9.116;2023-02-14T06:44:15;102244.38;;;3.70;71.53
59971;BME280;45825;45.434;9.116;2023-02-14T06:46:40;102241.75;;;3.72;72.09
59971;BME280;45825;45.434;9.116;2023-02-14T06:49:06;102250.47;;;3.80;71.37
59971;BME280;45825;45.434;9.116;2023-02-14T06:51:31;102253.06;;;3.75;71.72
59971;BME280;45825;45.434;9.116;2023-02-14T06:53:56;102261.81;;;3.91;71.39
59971;BME280;45825;45.434;9.116;2023-02-14T06:56:21;102260.13;;;4.01;70.82
59971;BME280;45825;45.434;9.116;2023-02-14T06:58:47;102259.28;;;4.09;70.50
59971;BME280;45825;45.434;9.116;2023-02-14T07:01:12;102261.91;;;4.07;70.33
59971;BME280;45825;45.434;9.116;2023-02-14T07:03:37;102259.25;;;4.01;71.11
59971;BME280;45825;45.434;9.116;2023-02-14T07:06:03;102267.97;;;4.09;70.36
59971;BME280;45825;45.434;9.116;2023-02-14T07:08:29;102278.41;;;4.12;70.41
59971;BME280;45825;45.434;9.116;2023-02-14T07:10:55;102274.09;;;4.22;70.03
59971;BME280;45825;45.434;9.116;2023-02-14T07:13:21;102273.22;;;4.28;69.35
59971;BME280;45825;45.434;9.116;2023-02-14T07:15:46;102275.88;;;4.31;69.62
59971;BME280;45825;45.434;9.116;2023-02-14T07:18:11;102273.25;;;4.34;69.63
59971;BME280;45825;45.434;9.116;2023-02-14T07:20:37;102275.84;;;4.28;69.41
59971;BME280;45825;45.434;9.116;2023-02-14T07:23:02;102274.16;;;4.39;69.61
59971;BME280;45825;45.434;9.116;2023-02-14T07:25:28;102273.25;;;4.32;69.45
59971;BME280;45825;45.434;9.116;2023-02-14T07:27:53;102279.34;;;4.30;70.01
59971;BME280;45825;45.434;9.116;2023-02-14T07:30:19;102276.78;;;4.52;69.42
59971;BME280;45825;45.434;9.116;2023-02-14T07:32:44;102282.88;;;4.65;69.06
59971;BME280;45825;45.434;9.116;2023-02-14T07:35:09;102279.38;;;4.53;69.06
59971;BME280;45825;45.434;9.116;2023-02-14T07:37:35;102287.22;;;4.59;69.40
59971;BME280;45825;45.434;9.116;2023-02-14T07:40:01;102280.28;;;4.58;69.32
59971;BME280;45825;45.434;9.116;2023-02-14T07:42:26;102288.09;;;4.51;69.25
59971;BME280;45825;45.434;9.116;2023-02-14T07:44:52;102288.09;;;4.61;69.29
59971;BME280;45825;45.434;9.116;2023-02-14T07:47:17;102276.81;;;4.73;68.66
59971;BME280;45825;45.434;9.116;2023-02-14T07:49:42;102281.16;;;4.74;68.84
59971;BME280;45825;45.434;9.116;2023-02-14T07:52:07;102276.78;;;4.70;69.20
59971;BME280;45825;45.434;9.116;2023-02-14T07:54:33;102282.00;;;4.63;69.27
59971;BME280;45825;45.434;9.116;2023-02-14T07:56:59;102279.41;;;4.63;69.35
59971;BME280;45825;45.434;9.116;2023-02-14T07:59:24;102288.13;;;4.79;69.15
59971;BME280;45825;45.434;9.116;2023-02-14T08:01:49;102289.88;;;4.95;68.99
59971;BME280;45825;45.434;9.116;2023-02-14T08:04:15;102288.13;;;5.05;68.32
59971;BME280;45825;45.434;9.116;2023-02-14T08:06:41;102287.25;;;5.20;67.92
59971;BME280;45825;45.434;9.116;2023-02-14T08:09:07;102271.59;;;5.29;67.13
59971;BME280;45825;45.434;9.116;2023-02-14T08:11:35;102288.13;;;5.17;67.47
59971;BME280;45825;45.434;9.116;2023-02-14T08:14:19;102276.81;;;5.34;67.67
59971;BME280;45825;45.434;9.116;2023-02-14T08:16:44;102276.78;;;5.40;66.61
59971;BME280;45825;45.434;9.116;2023-02-14T08:19:10;102269.81;;;5.39;66.74
59971;BME280;45825;45.434;9.116;2023-02-14T08:21:35;102275.91;;;5.52;67.14
59971;BME280;45825;45.434;9.116;2023-02-14T08:24:00;102278.53;;;5.48;67.09
59971;BME280;45825;45.434;9.116;2023-02-14T08:26:26;102271.56;;;5.56;66.72
59971;BME280;45825;45.434;9.116;2023-02-14T08:28:51;102279.38;;;5.56;66.70
59971;BME280;45825;45.434;9.116;2023-02-14T08:31:22;102275.00;;;5.56;66.57
59971;BME280;45825;45.434;9.116;2023-02-14T08:33:48;102277.59;;;5.70;66.87
59971;BME280;45825;45.434;9.116;2023-02-14T08:36:14;102275.84;;;5.76;66.38
59971;BME280;45825;45.434;9.116;2023-02-14T08:38:42;102271.44;;;5.88;66.02
59971;BME280;45825;45.434;9.116;2023-02-14T08:41:09;102271.41;;;5.93;65.92
59971;BME280;45825;45.434;9.116;2023-02-14T08:43:36;102272.28;;;5.97;65.72
59971;BME280;45825;45.434;9.116;2023-02-14T08:46:01;102269.66;;;5.95;65.45
59971;BME280;45825;45.434;9.116;2023-02-14T08:48:27;102264.44;;;6.05;65.13
59971;BME280;45825;45.434;9.116;2023-02-14T08:50:52;102255.72;;;6.09;64.53
59971;BME280;45825;45.434;9.116;2023-02-14T08:53:17;102252.16;;;6.21;64.93
59971;BME280;45825;45.434;9.116;2023-02-14T08:55:43;102259.13;;;6.23;64.19
59971;BME280;45825;45.434;9.116;2023-02-14T08:58:08;102260.84;;;6.29;64.05
59971;BME280;45825;45.434;9.116;2023-02-14T09:00:33;102258.19;;;6.34;64.20
59971;BME280;45825;45.434;9.116;2023-02-14T09:02:59;102259.97;;;6.27;64.13
59971;BME280;45825;45.434;9.116;2023-02-14T09:05:25;102264.22;;;6.43;63.86
59971;BME280;45825;45.434;9.116;2023-02-14T09:07:51;102270.28;;;6.52;63.05
59971;BME280;45825;45.434;9.116;2023-02-14T09:10:16;102272.81;;;6.66;62.54
59971;BME280;45825;45.434;9.116;2023-02-14T09:12:45;102271.94;;;6.65;62.48
59971;BME280;45825;45.434;9.116;2023-02-14T09:15:10;102265.72;;;6.80;61.50
59971;BME280;45825;45.434;9.116;2023-02-14T09:17:36;102264.00;;;6.81;61.74
59971;BME280;45825;45.434;9.116;2023-02-14T09:20:07;102259.53;;;6.94;61.11
59971;BME280;45825;45.434;9.116;2023-02-14T09:22:33;102263.00;;;6.94;60.91
59971;BME280;45825;45.434;9.116;2023-02-14T09:24:59;102262.03;;;7.03;60.72
59971;BME280;45825;45.434;9.116;2023-02-14T09:27:25;102254.09;;;7.14;60.52
59971;BME280;45825;45.434;9.116;2023-02-14T09:29:50;102259.25;;;7.23;59.32
59971;BME280;45825;45.434;9.116;2023-02-14T09:32:15;102254.78;;;7.33;59.56
59971;BME280;45825;45.434;9.116;2023-02-14T09:34:41;102247.69;;;7.45;59.80
59971;BME280;45825;45.434;9.116;2023-02-14T09:37:25;102254.50;;;7.61;59.00
59971;BME280;45825;45.434;9.116;2023-02-14T09:39:50;102252.69;;;7.68;58.70
59971;BME280;45825;45.434;9.116;2023-02-14T09:42:36;102249.97;;;7.77;59.18
59971;BME280;45825;45.434;9.116;2023-02-14T09:45:17;102249.75;;;7.94;59.22
59971;BME280;45825;45.434;9.116;2023-02-14T09:50:42;102251.09;;;8.23;58.32
59971;BME280;45825;45.434;9.116;2023-02-14T09:56:11;102246.47;;;8.43;57.87
59971;BME280;45825;45.434;9.116;2023-02-14T09:58:48;102245.28;;;8.64;56.86
59971;BME280;45825;45.434;9.116;2023-02-14T10:01:35;102233.59;;;8.84;55.46
59971;BME280;45825;45.434;9.116;2023-02-14T10:04:19;102227.13;;;9.05;55.31
59971;BME280;45825;45.434;9.116;2023-02-14T10:07:17;102218.13;;;9.18;56.96
59971;BME280;45825;45.434;9.116;2023-02-14T10:09:55;102229.25;;;9.33;57.13
59971;BME280;45825;45.434;9.116;2023-02-14T10:12:29;102227.41;;;9.38;56.91
59971;BME280;45825;45.434;9.116;2023-02-14T10:14:58;102222.91;;;9.43;56.73
59971;BME280;45825;45.434;9.116;2023-02-14T10:17:36;102224.28;;;9.64;57.52
59971;BME280;45825;45.434;9.116;2023-02-14T10:20:13;102218.75;;;9.77;57.99
59971;BME280;45825;45.434;9.116;2023-02-14T10:22:44;102216.50;;;10.01;57.53
59971;BME280;45825;45.434;9.116;2023-02-14T10:25:28;102211.38;;;10.32;55.96
59971;BME280;45825;45.434;9.116;2023-02-14T10:27:57;102211.69;;;10.58;54.20
59971;BME280;45825;45.434;9.116;2023-02-14T10:30:25;102212.47;;;10.63;55.81
59971;BME280;45825;45.434;9.116;2023-02-14T10:35:46;102194.13;;;11.26;51.56
59971;BME280;45825;45.434;9.116;2023-02-14T10:38:46;102198.91;;;11.75;51.94
59971;BME280;45825;45.434;9.116;2023-02-14T10:44:44;102202.91;;;12.46;49.02
59971;BME280;45825;45.434;9.116;2023-02-14T10:46:47;102191.31;;;13.04;47.92
59971;BME280;45825;45.434;9.116;2023-02-14T10:58:15;102169.50;;;17.57;38.25
59971;BME280;45825;45.434;9.116;2023-02-14T11:00:57;102166.84;;;18.66;34.58
59971;BME280;45825;45.434;9.116;2023-02-14T11:03:26;102151.75;;;20.23;34.15
59971;BME280;45825;45.434;9.116;2023-02-14T11:05:53;102149.88;;;20.64;34.30
59971;BME280;45825;45.434;9.116;2023-02-14T11:08:26;102143.38;;;19.88;31.19
59971;BME280;45825;45.434;9.116;2023-02-14T11:10:54;102141.81;;;21.55;29.53
59971;BME280;45825;45.434;9.116;2023-02-14T11:13:37;102132.16;;;21.90;29.92
59971;BME280;45825;45.434;9.116;2023-02-14T11:16:12;102122.66;;;23.60;28.67
59971;BME280;45825;45.434;9.116;2023-02-14T11:18:42;102121.03;;;24.34;26.45
59971;BME280;45825;45.434;9.116;2023-02-14T11:21:13;102111.47;;;24.94;27.07
59971;BME280;45825;45.434;9.116;2023-02-14T11:23:44;102102.72;;;25.52;24.35
59971;BME280;45825;45.434;9.116;2023-02-14T11:26:30;102101.19;;;25.60;24.50
59971;BME280;45825;45.434;9.116;2023-02-14T11:29:11;102097.91;;;26.45;22.75
59971;BME280;45825;45.434;9.116;2023-02-14T11:31:38;102082.91;;;26.60;22.71
59971;BME280;45825;45.434;9.116;2023-02-14T11:34:13;102079.47;;;25.01;23.25
59971;BME280;45825;45.434;9.116;2023-02-14T11:36:46;102078.00;;;26.36;24.33
59971;BME280;45825;45.434;9.116;2023-02-14T11:39:30;102078.88;;;26.27;22.36
59971;BME280;45825;45.434;9.116;2023-02-14T11:41:59;102075.97;;;26.58;23.44
59971;BME280;45825;45.434;9.116;2023-02-14T11:44:27;102074.53;;;27.66;22.21
59971;BME280;45825;45.434;9.116;2023-02-14T11:46:55;102063.94;;;28.62;21.31
59971;BME280;45825;45.434;9.116;2023-02-14T11:49:30;102058.47;;;28.27;20.84
59971;BME280;45825;45.434;9.116;2023-02-14T11:51:58;102048.19;;;27.50;21.58
59971;BME280;45825;45.434;9.116;2023-02-14T11:57:00;102049.69;;;28.07;20.83
59971;BME280;45825;45.434;9.116;2023-02-14T11:59:44;102044.72;;;26.93;21.90
59971;BME280;45825;45.434;9.116;2023-02-14T12:02:31;102038.44;;;27.93;21.11
59971;BME280;45825;45.434;9.116;2023-02-14T12:05:15;102024.50;;;28.06;20.49
59971;BME280;45825;45.434;9.116;2023-02-14T12:07:43;102022.88;;;28.13;20.66
59971;BME280;45825;45.434;9.116;2023-02-14T12:13:02;102005.72;;;29.00;19.69
59971;BME280;45825;45.434;9.116;2023-02-14T12:15:33;101992.53;;;29.31;19.45
59971;BME280;45825;45.434;9.116;2023-02-14T12:18:26;102005.41;;;29.95;19.17
59971;BME280;45825;45.434;9.116;2023-02-14T12:29:40;101974.03;;;30.09;17.99
59971;BME280;45825;45.434;9.116;2023-02-14T12:32:24;101966.69;;;30.26;18.03
59971;BME280;45825;45.434;9.116;2023-02-14T12:34:52;101968.47;;;30.42;17.63
59971;BME280;45825;45.434;9.116;2023-02-14T12:40:32;101959.97;;;29.97;18.23
59971;BME280;45825;45.434;9.116;2023-02-14T12:43:18;101952.41;;;29.51;18.31
59971;BME280;45825;45.434;9.116;2023-02-14T12:46:05;101946.44;;;29.06;18.82
59971;BME280;45825;45.434;9.116;2023-02-14T12:48:46;101931.41;;;28.52;19.47
59971;BME280;45825;45.434;9.116;2023-02-14T12:51:22;101925.44;;;29.74;18.48
59971;BME280;45825;45.434;9.116;2023-02-14T12:53:57;101920.41;;;29.46;18.25
59971;BME280;45825;45.434;9.116;2023-02-14T12:56:36;101908.38;;;30.22;18.16
59971;BME280;45825;45.434;9.116;2023-02-14T13:06:59;101899.22;;;28.83;19.30
59971;BME280;45825;45.434;9.116;2023-02-14T13:09:39;101891.84;;;28.59;19.31
59971;BME280;45825;45.434;9.116;2023-02-14T13:12:14;101879.19;;;30.24;18.19
59971;BME280;45825;45.434;9.116;2023-02-14T13:23:02;101860.66;;;29.88;17.89
59971;BME280;45825;45.434;9.116;2023-02-14T13:25:30;101852.97;;;29.43;18.33
59971;BME280;45825;45.434;9.116;2023-02-14T13:28:01;101851.63;;;29.47;18.00
59971;BME280;45825;45.434;9.116;2023-02-14T13:30:33;101846.13;;;30.20;17.58
59971;BME280;45825;45.434;9.116;2023-02-14T13:33:02;101843.72;;;30.25;17.25
59971;BME280;45825;45.434;9.116;2023-02-14T13:35:30;101849.50;;;30.54;17.26
59971;BME280;45825;45.434;9.116;2023-02-14T13:38:00;101840.25;;;29.60;18.37
59971;BME280;45825;45.434;9.116;2023-02-14T13:40:27;101833.53;;;30.83;17.10
59971;BME280;45825;45.434;9.116;2023-02-14T13:42:58;101838.78;;;30.84;17.03
59971;BME280;45825;45.434;9.116;2023-02-14T13:48:03;101832.06;;;30.72;17.05
59971;BME280;45825;45.434;9.116;2023-02-14T13:50:32;101832.91;;;30.96;17.03
59971;BME280;45825;45.434;9.116;2023-02-14T13:52:58;101822.97;;;31.41;16.80
59971;BME280;45825;45.434;9.116;2023-02-14T13:55:27;101822.03;;;31.49;16.97
59971;BME280;45825;45.434;9.116;2023-02-14T13:58:05;101818.19;;;31.73;16.22
59971;BME280;45825;45.434;9.116;2023-02-14T14:00:41;101812.63;;;31.21;16.91
59971;BME280;45825;45.434;9.116;2023-02-14T14:06:08;101799.72;;;31.84;16.60
59971;BME280;45825;45.434;9.116;2023-02-14T14:08:46;101804.34;;;31.15;16.78
59971;BME280;45825;45.434;9.116;2023-02-14T14:14:01;101805.22;;;31.30;16.33
59971;BME280;45825;45.434;9.116;2023-02-14T14:16:32;101801.13;;;30.26;17.45
59971;BME280;45825;45.434;9.116;2023-02-14T14:21:35;101795.88;;;29.93;17.38
59971;BME280;45825;45.434;9.116;2023-02-14T14:24:26;101791.72;;;29.74;17.82
59971;BME280;45825;45.434;9.116;2023-02-14T14:29:26;101778.63;;;29.37;17.88
59971;BME280;45825;45.434;9.116;2023-02-14T14:31:52;101784.41;;;29.09;18.23
59971;BME280;45825;45.434;9.116;2023-02-14T14:34:28;101771.00;;;29.33;18.13
59971;BME280;45825;45.434;9.116;2023-02-14T14:37:07;101774.78;;;28.98;18.44
59971;BME280;45825;45.434;9.116;2023-02-14T14:39:39;101766.25;;;29.83;18.04
59971;BME280;45825;45.434;9.116;2023-02-14T14:42:14;101764.06;;;29.78;17.90
59971;BME280;45825;45.434;9.116;2023-02-14T14:44:55;101761.50;;;29.28;17.90
59971;BME280;45825;45.434;9.116;2023-02-14T14:47:25;101762.47;;;26.99;19.62
59971;BME280;45825;45.434;9.116;2023-02-14T14:50:02;101766.91;;;23.94;22.91